Cruzeiro Do Canal — CSVG — position and weather

sailwx.info

Track history (hours):
 
Tides and Currents Weather Stations Pressure Air Temp Water Temp Dewpoint Dewpoint Depression Visibility Wind Speed Wind Dir Waves Ship Positions

Cruzeiro Do Canal

Last reported at 2015-Jan-30 19:33 UTC. Time now 2015-Jan-31 07:08 UTC.
Position N 38°32' W 028°37'.

Length 32 m.

Type: Passenger vessel. MMSI: 204701250.

Date/timePositionNaut miles runAvg speedWind from/ knotsBaromVisibWave heightAir tempDewpointWater temp
2015-Jan-30 19:33N 38°32' W 028°37'2 2.0
2015-Jan-30 18:34N 38°32' W 028°34'2 2.3
2015-Jan-30 17:34N 38°32' W 028°37'0 0.0
2015-Jan-30 16:33N 38°32' W 028°37'0 0.0
2015-Jan-30 15:34N 38°32' W 028°37'0 0.0
2015-Jan-30 14:33N 38°32' W 028°37'0 0.0
2015-Jan-30 13:33N 38°32' W 028°37'6 5.9
2015-Jan-30 12:34N 38°34' W 028°30'1212.0
2015-Jan-30 11:34N 38°39' W 028°16'3 2.8
2015-Jan-30 10:34N 38°38' W 028°19'1111.2
2015-Jan-30 09:33N 38°32' W 028°32'4 0.3
2015-Jan-29 19:34N 38°32' W 028°37'3 3.0
2015-Jan-29 18:34N 38°32' W 028°33'3 3.0
2015-Jan-29 17:33N 38°32' W 028°37'0 0.0
2015-Jan-29 16:33N 38°32' W 028°37'0 0.0
2015-Jan-29 15:33N 38°32' W 028°37'0 0.0
2015-Jan-29 14:34N 38°32' W 028°37'0 0.0
2015-Jan-29 13:34N 38°32' W 028°37'8 7.5
2015-Jan-29 12:34N 38°35' W 028°28'1211.6
2015-Jan-29 11:34N 38°40' W 028°15'6 5.6
2015-Jan-29 10:34N 38°37' W 028°21'10 9.9
2015-Jan-29 09:34N 38°32' W 028°32'4 0.3
2015-Jan-28 19:33N 38°32' W 028°37'3 3.3
2015-Jan-28 18:33N 38°32' W 028°33'3 3.3
2015-Jan-28 17:33N 38°32' W 028°37'1 0.3
2015-Jan-28 13:15N 38°32' W 028°36'6 8.4
2015-Jan-28 12:34N 38°34' W 028°29'1212.3
2015-Jan-28 11:33N 38°39' W 028°15'6 5.5
2015-Jan-28 10:33N 38°37' W 028°21'10 9.8
2015-Jan-28 09:34N 38°32' W 028°32'4 0.3
2015-Jan-27 19:33N 38°32' W 028°37'3 3.1
2015-Jan-27 18:33N 38°32' W 028°33'3 3.1
2015-Jan-27 17:34N 38°32' W 028°37'0 0.0
2015-Jan-27 16:33N 38°32' W 028°37'0 0.0
2015-Jan-27 15:33N 38°32' W 028°37'0 0.0
2015-Jan-27 14:34N 38°32' W 028°37'0 0.0
2015-Jan-27 13:04N 38°32' W 028°37'4 8.4
2015-Jan-27 12:33N 38°33' W 028°32'1010.2
2015-Jan-27 11:34N 38°32' W 028°19'1010.1
2015-Jan-27 10:34N 38°40' W 028°12'9 9.1
2015-Jan-27 09:33N 38°33' W 028°18'9 9.3
2015-Jan-27 08:34N 38°34' W 028°30'6 0.4
2015-Jan-26 19:33N 38°32' W 028°37'2 1.9
2015-Jan-26 18:33N 38°32' W 028°35'2 0.3
2015-Jan-26 13:05N 38°32' W 028°37'4 7.8
2015-Jan-26 12:33N 38°33' W 028°32'1010.2
2015-Jan-26 11:33N 38°32' W 028°19'1010.5
2015-Jan-26 10:33N 38°41' W 028°12'1010.5
2015-Jan-26 09:33N 38°32' W 028°19'10 9.6
2015-Jan-26 08:33N 38°34' W 028°31'  
2015-Jan-22 13:33N 38°32' W 028°37'8 7.5
2015-Jan-22 12:33N 38°35' W 028°28'1212.2
2015-Jan-22 11:33N 38°40' W 028°14'7 6.5
2015-Jan-22 10:33N 38°37' W 028°21'9 9.5
2015-Jan-22 09:33N 38°32' W 028°32'  
Track history (hours):
 
Tides and Currents Weather Stations Pressure Air Temp Water Temp Dewpoint Dewpoint Depression Visibility Wind Speed Wind Dir Waves Ship Positions

Cruzeiro Do Canal

Last reported at 2015-Jan-30 19:33 UTC. Time now 2015-Jan-31 07:08 UTC.
Position N 38°32' W 028°37'.

Length 32 m.

Type: Passenger vessel. MMSI: 204701250.

Date/timePositionNaut miles runAvg speedWind from/ knotsBaromVisibWave heightAir tempDewpointWater temp
2015-Jan-30 19:33N 38°32' W 028°37'2 2.0
2015-Jan-30 18:34N 38°32' W 028°34'2 2.3
2015-Jan-30 17:34N 38°32' W 028°37'0 0.0
2015-Jan-30 16:33N 38°32' W 028°37'0 0.0
2015-Jan-30 15:34N 38°32' W 028°37'0 0.0
2015-Jan-30 14:33N 38°32' W 028°37'0 0.0
2015-Jan-30 13:33N 38°32' W 028°37'6 5.9
2015-Jan-30 12:34N 38°34' W 028°30'1212.0
2015-Jan-30 11:34N 38°39' W 028°16'3 2.8
2015-Jan-30 10:34N 38°38' W 028°19'1111.2
2015-Jan-30 09:33N 38°32' W 028°32'4 0.3
2015-Jan-29 19:34N 38°32' W 028°37'3 3.0
2015-Jan-29 18:34N 38°32' W 028°33'3 3.0
2015-Jan-29 17:33N 38°32' W 028°37'0 0.0
2015-Jan-29 16:33N 38°32' W 028°37'0 0.0
2015-Jan-29 15:33N 38°32' W 028°37'0 0.0
2015-Jan-29 14:34N 38°32' W 028°37'0 0.0
2015-Jan-29 13:34N 38°32' W 028°37'8 7.5
2015-Jan-29 12:34N 38°35' W 028°28'1211.6
2015-Jan-29 11:34N 38°40' W 028°15'6 5.6
2015-Jan-29 10:34N 38°37' W 028°21'10 9.9
2015-Jan-29 09:34N 38°32' W 028°32'4 0.3
2015-Jan-28 19:33N 38°32' W 028°37'3 3.3
2015-Jan-28 18:33N 38°32' W 028°33'3 3.3
2015-Jan-28 17:33N 38°32' W 028°37'1 0.3
2015-Jan-28 13:15N 38°32' W 028°36'6 8.4
2015-Jan-28 12:34N 38°34' W 028°29'1212.3
2015-Jan-28 11:33N 38°39' W 028°15'6 5.5
2015-Jan-28 10:33N 38°37' W 028°21'10 9.8
2015-Jan-28 09:34N 38°32' W 028°32'4 0.3
2015-Jan-27 19:33N 38°32' W 028°37'3 3.1
2015-Jan-27 18:33N 38°32' W 028°33'3 3.1
2015-Jan-27 17:34N 38°32' W 028°37'0 0.0
2015-Jan-27 16:33N 38°32' W 028°37'0 0.0
2015-Jan-27 15:33N 38°32' W 028°37'0 0.0
2015-Jan-27 14:34N 38°32' W 028°37'0 0.0
2015-Jan-27 13:04N 38°32' W 028°37'4 8.4
2015-Jan-27 12:33N 38°33' W 028°32'1010.2
2015-Jan-27 11:34N 38°32' W 028°19'1010.1
2015-Jan-27 10:34N 38°40' W 028°12'9 9.1
2015-Jan-27 09:33N 38°33' W 028°18'9 9.3
2015-Jan-27 08:34N 38°34' W 028°30'6 0.4
2015-Jan-26 19:33N 38°32' W 028°37'2 1.9
2015-Jan-26 18:33N 38°32' W 028°35'2 0.3
2015-Jan-26 13:05N 38°32' W 028°37'4 7.8
2015-Jan-26 12:33N 38°33' W 028°32'1010.2
2015-Jan-26 11:33N 38°32' W 028°19'1010.5
2015-Jan-26 10:33N 38°41' W 028°12'1010.5
2015-Jan-26 09:33N 38°32' W 028°19'10 9.6
2015-Jan-26 08:33N 38°34' W 028°31'  
2015-Jan-22 13:33N 38°32' W 028°37'8 7.5
2015-Jan-22 12:33N 38°35' W 028°28'1212.2
2015-Jan-22 11:33N 38°40' W 028°14'7 6.5
2015-Jan-22 10:33N 38°37' W 028°21'9 9.5
2015-Jan-22 09:33N 38°32' W 028°32'  

Dump ship's entire track history